Time,TemperatureF,DewpointF,PressureIn,WindDirection,WindDirectionDegrees,WindSpeedMPH,WindSpeedGustMPH,Humidity,HourlyPrecipIn,Conditions,Clouds,dailyrainin,SoftwareType,DateUTC
2013-04-03 00:03:00,38.0,20.0,30.11,NNW,331,10.0,-999.0,48,-99.99,,,-99.99,,2013-04-03 04:03:00,
2013-04-03 00:13:00,38.0,20.0,30.11,NNW,331,10.0,-999.0,48,-99.99,,,-99.99,,2013-04-03 04:13:00,
2013-04-03 00:23:00,38.0,20.0,30.11,NNW,331,10.0,-999.0,48,-99.99,,,-99.99,,2013-04-03 04:23:00,
2013-04-03 00:33:00,37.0,21.0,30.10,NW,325,11.0,-999.0,52,-99.99,,,-99.99,,2013-04-03 04:33:00,
2013-04-03 00:43:00,37.0,21.0,30.10,NW,325,11.0,-999.0,52,-99.99,,,-99.99,,2013-04-03 04:43:00,
2013-04-03 00:53:00,37.0,22.0,30.11,NW,324,11.0,-999.0,55,-99.99,,,-99.99,,2013-04-03 04:53:00,
2013-04-03 01:02:00,37.0,24.0,30.10,NW,315,10.0,-999.0,58,-99.99,,,-99.99,,2013-04-03 05:02:00,
2013-04-03 01:12:00,37.0,24.0,30.10,NW,315,10.0,-999.0,58,-99.99,,,-99.99,,2013-04-03 05:12:00,
2013-04-03 01:22:00,37.0,22.0,30.11,NW,322,9.0,-999.0,55,-99.99,,,-99.99,,2013-04-03 05:22:00,
2013-04-03 01:32:00,36.0,23.0,30.10,NNW,330,11.0,-999.0,58,-99.99,,,-99.99,,2013-04-03 05:32:00,
2013-04-03 01:42:00,36.0,23.0,30.10,NNW,330,11.0,-999.0,58,-99.99,,,-99.99,,2013-04-03 05:42:00,
2013-04-03 01:53:00,36.0,24.0,30.10,NNW,327,11.0,-999.0,61,-99.99,,,-99.99,,2013-04-03 05:53:00,
2013-04-03 02:02:00,36.0,24.0,30.10,NNW,334,11.0,-999.0,61,-99.99,,,-99.99,,2013-04-03 06:02:00,
2013-04-03 02:12:00,36.0,24.0,30.10,NNW,334,11.0,-999.0,61,-99.99,,,-99.99,,2013-04-03 06:12:00,
2013-04-03 02:22:00,36.0,24.0,30.09,North,9,11.0,-999.0,61,-99.99,,,-99.99,,2013-04-03 06:22:00,
2013-04-03 02:32:00,35.0,23.0,30.09,NNW,333,10.0,-999.0,60,-99.99,,,-99.99,,2013-04-03 06:32:00,
2013-04-03 02:42:00,35.0,23.0,30.09,NNW,333,10.0,-999.0,60,-99.99,,,-99.99,,2013-04-03 06:42:00,
2013-04-03 02:52:00,35.0,23.0,30.09,NW,319,10.0,-999.0,62,-99.99,,,-99.99,,2013-04-03 06:52:00,
2013-04-03 03:02:00,35.0,23.0,30.09,NNW,335,9.0,-999.0,60,-99.99,,,-99.99,,2013-04-03 07:02:00,
2013-04-03 03:12:00,35.0,23.0,30.09,NNW,335,9.0,-999.0,60,-99.99,,,-99.99,,2013-04-03 07:12:00,
2013-04-03 03:23:00,35.0,22.0,30.09,NNW,341,9.0,-999.0,59,-99.99,,,-99.99,,2013-04-03 07:23:00,
2013-04-03 03:33:00,35.0,22.0,30.06,NNW,331,8.0,-999.0,59,-99.99,,,-99.99,,2013-04-03 07:33:00,
2013-04-03 03:42:00,35.0,22.0,30.06,NNW,331,8.0,-999.0,59,-99.99,,,-99.99,,2013-04-03 07:42:00,
2013-04-03 03:53:00,36.0,24.0,30.06,NNW,336,9.0,-999.0,61,-99.99,,,-99.99,,2013-04-03 07:53:00,
2013-04-03 04:03:00,37.0,24.0,30.06,NNW,333,11.0,-999.0,59,-99.99,,,-99.99,,2013-04-03 08:03:00,
2013-04-03 04:12:00,37.0,24.0,30.06,NNW,333,11.0,-999.0,59,-99.99,,,-99.99,,2013-04-03 08:12:00,
2013-04-03 04:22:00,37.0,24.0,30.05,NNW,336,11.0,-999.0,59,-99.99,,,-99.99,,2013-04-03 08:22:00,
2013-04-03 04:32:00,36.0,22.0,30.05,NNW,339,7.0,-999.0,57,-99.99,,,-99.99,,2013-04-03 08:32:00,
2013-04-03 04:42:00,36.0,22.0,30.05,NNW,339,7.0,-999.0,57,-99.99,,,-99.99,,2013-04-03 08:42:00,
2013-04-03 04:52:00,38.0,22.0,30.04,NW,325,9.0,-999.0,53,-99.99,,,-99.99,,2013-04-03 08:52:00,
2013-04-03 05:02:00,38.0,21.0,30.03,NNW,338,7.0,-999.0,49,-99.99,,,-99.99,,2013-04-03 09:02:00,
2013-04-03 05:12:00,38.0,21.0,30.03,NNW,338,7.0,-999.0,49,-99.99,,,-99.99,,2013-04-03 09:12:00,
2013-04-03 05:22:00,37.0,19.0,30.03,NW,323,9.0,-999.0,48,-99.99,,,-99.99,,2013-04-03 09:22:00,
2013-04-03 05:33:00,38.0,16.0,30.07,NNW,333,7.0,-999.0,41,-99.99,,,-99.99,,2013-04-03 09:33:00,
2013-04-03 05:43:00,38.0,16.0,30.07,NNW,333,7.0,-999.0,41,-99.99,,,-99.99,,2013-04-03 09:43:00,
2013-04-03 05:53:00,38.0,17.0,30.06,NNW,331,6.0,-999.0,42,-99.99,,,-99.99,,2013-04-03 09:53:00,
2013-04-03 06:03:00,37.0,16.0,30.08,WSW,252,3.0,-999.0,42,-99.99,,,-99.99,,2013-04-03 10:03:00,
2013-04-03 06:12:00,37.0,16.0,30.08,WSW,252,3.0,-999.0,42,-99.99,,,-99.99,,2013-04-03 10:12:00,
2013-04-03 06:22:00,36.0,20.0,30.10,ESE,103,2.0,-999.0,52,-99.99,,,-99.99,,2013-04-03 10:22:00,
2013-04-03 06:33:00,35.0,20.0,30.12,East,101,2.0,-999.0,55,-99.99,,,-99.99,,2013-04-03 10:33:00,
2013-04-03 06:43:00,35.0,20.0,30.12,East,101,2.0,-999.0,55,-99.99,,,-99.99,,2013-04-03 10:43:00,
2013-04-03 06:53:00,37.0,16.0,30.12,East,92,0.0,-999.0,41,-99.99,,,-99.99,,2013-04-03 10:53:00,
2013-04-03 07:02:00,37.0,18.0,30.12,East,87,3.0,-999.0,45,-99.99,,,-99.99,,2013-04-03 11:02:00,
2013-04-03 07:12:00,37.0,18.0,30.12,East,87,3.0,-999.0,45,-99.99,,,-99.99,,2013-04-03 11:12:00,
2013-04-03 07:23:00,38.0,13.0,30.15,SSW,212,1.0,-999.0,36,-99.99,,,-99.99,,2013-04-03 11:23:00,
2013-04-03 07:32:00,37.0,18.0,30.16,ESE,107,1.0,-999.0,45,-99.99,,,-99.99,,2013-04-03 11:32:00,
2013-04-03 07:42:00,37.0,18.0,30.16,ESE,107,1.0,-999.0,45,-99.99,,,-99.99,,2013-04-03 11:42:00,
2013-04-03 07:53:00,37.0,18.0,30.17,ESE,102,2.0,-999.0,45,-99.99,,,-99.99,,2013-04-03 11:53:00,
2013-04-03 08:02:00,37.0,18.0,30.17,East,94,2.0,-999.0,45,-99.99,,,-99.99,,2013-04-03 12:02:00,
2013-04-03 08:13:00,37.0,18.0,30.17,East,94,2.0,-999.0,45,-99.99,,,-99.99,,2013-04-03 12:13:00,
2013-04-03 08:22:00,37.0,19.0,30.18,East,96,2.0,-999.0,48,-99.99,,,-99.99,,2013-04-03 12:22:00,
2013-04-03 08:33:00,36.0,20.0,30.19,East,97,2.0,-999.0,51,-99.99,,,-99.99,,2013-04-03 12:33:00,
2013-04-03 08:42:00,36.0,20.0,30.19,East,97,2.0,-999.0,51,-99.99,,,-99.99,,2013-04-03 12:42:00,
2013-04-03 08:52:00,36.0,21.0,30.20,East,89,1.0,-999.0,53,-99.99,,,-99.99,,2013-04-03 12:52:00,
2013-04-03 09:02:00,37.0,21.0,30.19,East,82,3.0,-999.0,53,-99.99,,,-99.99,,2013-04-03 13:02:00,
2013-04-03 09:12:00,37.0,21.0,30.19,East,82,3.0,-999.0,53,-99.99,,,-99.99,,2013-04-03 13:12:00,
2013-04-03 09:22:00,38.0,22.0,30.19,NE,35,2.0,-999.0,53,-99.99,,,-99.99,,2013-04-03 13:22:00,
2013-04-03 09:32:00,39.0,23.0,30.19,ESE,112,1.0,-999.0,52,-99.99,,,-99.99,,2013-04-03 13:32:00,
2013-04-03 09:42:00,39.0,23.0,30.19,ESE,112,1.0,-999.0,52,-99.99,,,-99.99,,2013-04-03 13:42:00,
2013-04-03 09:52:00,40.0,24.0,30.18,ESE,115,1.0,-999.0,52,-99.99,,,-99.99,,2013-04-03 13:52:00,
2013-04-03 10:02:00,40.0,24.0,30.18,ENE,58,1.0,-999.0,53,-99.99,,,-99.99,,2013-04-03 14:02:00,
2013-04-03 10:13:00,40.0,24.0,30.18,ENE,58,1.0,-999.0,53,-99.99,,,-99.99,,2013-04-03 14:13:00,
2013-04-03 10:22:00,41.0,25.0,30.19,WSW,243,1.0,-999.0,52,-99.99,,,-99.99,,2013-04-03 14:22:00,
2013-04-03 10:32:00,41.0,24.0,30.19,SE,128,2.0,-999.0,50,-99.99,,,-99.99,,2013-04-03 14:32:00,
2013-04-03 10:42:00,41.0,24.0,30.19,SE,128,2.0,-999.0,50,-99.99,,,-99.99,,2013-04-03 14:42:00,
2013-04-03 10:52:00,41.0,24.0,30.19,SE,146,3.0,-999.0,51,-99.99,,,-99.99,,2013-04-03 14:52:00,
2013-04-03 11:02:00,41.0,24.0,30.19,SSW,207,3.0,-999.0,50,-99.99,,,-99.99,,2013-04-03 15:02:00,
2013-04-03 11:12:00,41.0,24.0,30.19,SSW,207,3.0,-999.0,50,-99.99,,,-99.99,,2013-04-03 15:12:00,
2013-04-03 11:23:00,42.0,24.0,30.21,ESE,119,4.0,-999.0,48,-99.99,,,-99.99,,2013-04-03 15:23:00,
2013-04-03 11:33:00,42.0,22.0,30.22,SSE,153,5.0,-999.0,45,-99.99,,,-99.99,,2013-04-03 15:33:00,
2013-04-03 11:43:00,42.0,22.0,30.22,SSE,153,5.0,-999.0,45,-99.99,,,-99.99,,2013-04-03 15:43:00,
2013-04-03 11:53:00,43.0,23.0,30.22,ESE,113,4.0,-999.0,44,-99.99,,,-99.99,,2013-04-03 15:53:00,
2013-04-03 12:03:00,44.0,21.0,30.21,SE,127,3.0,-999.0,40,-99.99,,,-99.99,,2013-04-03 16:03:00,
2013-04-03 12:13:00,44.0,21.0,30.21,SE,127,3.0,-999.0,40,-99.99,,,-99.99,,2013-04-03 16:13:00,
2013-04-03 12:24:00,44.0,21.0,30.20,ESE,111,3.0,-999.0,39,-99.99,,,-99.99,,2013-04-03 16:24:00,
2013-04-03 12:33:00,43.0,20.0,30.22,ESE,106,3.0,-999.0,39,-99.99,,,-99.99,,2013-04-03 16:33:00,
2013-04-03 12:43:00,43.0,20.0,30.22,ESE,106,3.0,-999.0,39,-99.99,,,-99.99,,2013-04-03 16:43:00,
2013-04-03 12:53:00,44.0,21.0,30.22,SE,139,3.0,-999.0,39,-99.99,,,-99.99,,2013-04-03 16:53:00,
2013-04-03 13:03:00,44.0,20.0,30.20,SSE,151,2.0,-999.0,38,-99.99,,,-99.99,,2013-04-03 17:03:00,
2013-04-03 13:14:00,44.0,20.0,30.20,SSE,151,2.0,-999.0,38,-99.99,,,-99.99,,2013-04-03 17:14:00,
2013-04-03 13:23:00,45.0,20.0,30.20,ENE,78,2.0,-999.0,37,-99.99,,,-99.99,,2013-04-03 17:23:00,
2013-04-03 13:33:00,46.0,21.0,30.20,ESE,103,2.0,-999.0,37,-99.99,,,-99.99,,2013-04-03 17:33:00,
2013-04-03 13:46:00,46.0,21.0,30.20,ESE,103,2.0,-999.0,37,-99.99,,,-99.99,,2013-04-03 17:46:00,
2013-04-03 13:54:00,46.0,20.0,30.19,East,92,3.0,-999.0,35,-99.99,,,-99.99,,2013-04-03 17:54:00,
2013-04-03 14:02:00,47.0,20.0,30.18,ENE,62,2.0,-999.0,34,-99.99,,,-99.99,,2013-04-03 18:02:00,
2013-04-03 14:13:00,47.0,20.0,30.18,ENE,62,2.0,-999.0,34,-99.99,,,-99.99,,2013-04-03 18:13:00,
2013-04-03 14:23:00,48.0,22.0,30.18,SSE,161,2.0,-999.0,35,-99.99,,,-99.99,,2013-04-03 18:23:00,
2013-04-03 14:33:00,48.0,20.0,30.17,South,182,3.0,-999.0,33,-99.99,,,-99.99,,2013-04-03 18:33:00,
2013-04-03 14:43:00,48.0,20.0,30.17,South,182,3.0,-999.0,33,-99.99,,,-99.99,,2013-04-03 18:43:00,
2013-04-03 14:52:00,49.0,22.0,30.19,ENE,74,2.0,-999.0,34,-99.99,,,-99.99,,2013-04-03 18:52:00,
2013-04-03 15:03:00,48.0,21.0,30.18,East,94,2.0,-999.0,34,-99.99,,,-99.99,,2013-04-03 19:03:00,
2013-04-03 15:12:00,48.0,21.0,30.18,East,94,2.0,-999.0,34,-99.99,,,-99.99,,2013-04-03 19:12:00,
2013-04-03 15:22:00,48.0,22.0,30.19,SSE,150,3.0,-999.0,36,-99.99,,,-99.99,,2013-04-03 19:22:00,
2013-04-03 15:32:00,48.0,22.0,30.19,South,180,2.0,-999.0,35,-99.99,,,-99.99,,2013-04-03 19:32:00,
2013-04-03 15:42:00,48.0,22.0,30.19,South,180,2.0,-999.0,35,-99.99,,,-99.99,,2013-04-03 19:42:00,
2013-04-03 15:52:00,49.0,22.0,30.17,East,98,1.0,-999.0,34,-99.99,,,-99.99,,2013-04-03 19:52:00,
2013-04-03 16:02:00,50.0,24.0,30.17,SSE,167,1.0,-999.0,36,-99.99,,,-99.99,,2013-04-03 20:02:00,
2013-04-03 16:12:00,50.0,24.0,30.17,SSE,167,1.0,-999.0,36,-99.99,,,-99.99,,2013-04-03 20:12:00,
2013-04-03 16:23:00,48.0,22.0,30.17,ESE,113,1.0,-999.0,36,-99.99,,,-99.99,,2013-04-03 20:23:00,
2013-04-03 16:33:00,49.0,23.0,30.17,East,98,0.0,-999.0,36,-99.99,,,-99.99,,2013-04-03 20:33:00,
2013-04-03 16:42:00,49.0,23.0,30.17,East,98,0.0,-999.0,36,-99.99,,,-99.99,,2013-04-03 20:42:00,
2013-04-03 16:53:00,48.0,24.0,30.17,East,92,1.0,-999.0,38,-99.99,,,-99.99,,2013-04-03 20:53:00,
2013-04-03 17:02:00,47.0,23.0,30.16,ESE,108,2.0,-999.0,38,-99.99,,,-99.99,,2013-04-03 21:02:00,
2013-04-03 17:12:00,47.0,23.0,30.16,ESE,108,2.0,-999.0,38,-99.99,,,-99.99,,2013-04-03 21:12:00,
2013-04-03 17:22:00,47.0,24.0,30.18,East,93,2.0,-999.0,40,-99.99,,,-99.99,,2013-04-03 21:22:00,
2013-04-03 17:33:00,47.0,24.0,30.18,NE,45,2.0,-999.0,40,-99.99,,,-99.99,,2013-04-03 21:33:00,
2013-04-03 17:42:00,47.0,24.0,30.18,NE,45,2.0,-999.0,40,-99.99,,,-99.99,,2013-04-03 21:42:00,
2013-04-03 17:52:00,46.0,24.0,30.18,ESE,102,3.0,-999.0,41,-99.99,,,-99.99,,2013-04-03 21:52:00,
2013-04-03 18:02:00,45.0,23.0,30.18,East,85,3.0,-999.0,42,-99.99,,,-99.99,,2013-04-03 22:02:00,
2013-04-03 18:13:00,45.0,23.0,30.18,East,85,3.0,-999.0,42,-99.99,,,-99.99,,2013-04-03 22:13:00,
2013-04-03 18:22:00,45.0,23.0,30.17,East,98,2.0,-999.0,42,-99.99,,,-99.99,,2013-04-03 22:22:00,
2013-04-03 18:33:00,44.0,23.0,30.17,East,99,4.0,-999.0,43,-99.99,,,-99.99,,2013-04-03 22:33:00,
2013-04-03 18:42:00,44.0,23.0,30.17,East,99,4.0,-999.0,43,-99.99,,,-99.99,,2013-04-03 22:42:00,
2013-04-03 18:52:00,44.0,23.0,30.16,East,84,4.0,-999.0,43,-99.99,,,-99.99,,2013-04-03 22:52:00,
2013-04-03 19:02:00,44.0,23.0,30.17,East,82,5.0,-999.0,44,-99.99,,,-99.99,,2013-04-03 23:02:00,
2013-04-03 19:12:00,44.0,23.0,30.17,East,82,5.0,-999.0,44,-99.99,,,-99.99,,2013-04-03 23:12:00,
2013-04-03 19:22:00,43.0,23.0,30.17,East,93,5.0,-999.0,45,-99.99,,,-99.99,,2013-04-03 23:22:00,
2013-04-03 19:32:00,43.0,23.0,30.18,East,84,6.0,-999.0,45,-99.99,,,-99.99,,2013-04-03 23:32:00,
2013-04-03 19:43:00,43.0,23.0,30.18,East,84,6.0,-999.0,45,-99.99,,,-99.99,,2013-04-03 23:43:00,
2013-04-03 19:54:00,42.0,23.0,30.18,East,85,6.0,-999.0,46,-99.99,,,-99.99,,2013-04-03 23:54:00,
2013-04-03 20:03:00,42.0,23.0,30.18,East,98,7.0,-999.0,47,-99.99,,,-99.99,,2013-04-04 00:03:00,
2013-04-03 20:12:00,42.0,23.0,30.18,East,98,7.0,-999.0,47,-99.99,,,-99.99,,2013-04-04 00:12:00,
2013-04-03 20:22:00,42.0,23.0,30.18,East,84,6.0,-999.0,47,-99.99,,,-99.99,,2013-04-04 00:22:00,
2013-04-03 20:32:00,41.0,22.0,30.19,East,101,6.0,-999.0,47,-99.99,,,-99.99,,2013-04-04 00:32:00,
2013-04-03 20:43:00,41.0,22.0,30.19,East,101,6.0,-999.0,47,-99.99,,,-99.99,,2013-04-04 00:43:00,
2013-04-03 20:52:00,41.0,23.0,30.21,East,86,6.0,-999.0,48,-99.99,,,-99.99,,2013-04-04 00:52:00,
2013-04-03 21:02:00,41.0,22.0,30.21,East,84,7.0,-999.0,47,-99.99,,,-99.99,,2013-04-04 01:02:00,
2013-04-03 21:12:00,41.0,22.0,30.21,East,84,7.0,-999.0,47,-99.99,,,-99.99,,2013-04-04 01:12:00,
2013-04-03 21:22:00,41.0,22.0,30.19,East,80,7.0,-999.0,47,-99.99,,,-99.99,,2013-04-04 01:22:00,
2013-04-03 21:32:00,41.0,22.0,30.19,East,80,7.0,-999.0,47,-99.99,,,-99.99,,2013-04-04 01:32:00,
2013-04-03 21:43:00,41.0,22.0,30.19,East,80,7.0,-999.0,47,-99.99,,,-99.99,,2013-04-04 01:43:00,
2013-04-03 21:52:00,41.0,23.0,30.20,ESE,109,8.0,-999.0,49,-99.99,,,-99.99,,2013-04-04 01:52:00,
2013-04-03 22:02:00,40.0,22.0,30.20,ENE,78,9.0,-999.0,49,-99.99,,,-99.99,,2013-04-04 02:02:00,
2013-04-03 22:12:00,40.0,22.0,30.20,ENE,78,9.0,-999.0,49,-99.99,,,-99.99,,2013-04-04 02:12:00,
2013-04-03 22:22:00,40.0,23.0,30.21,ENE,63,9.0,-999.0,50,-99.99,,,-99.99,,2013-04-04 02:22:00,
2013-04-03 22:32:00,40.0,23.0,30.21,East,81,9.0,-999.0,51,-99.99,,,-99.99,,2013-04-04 02:32:00,
2013-04-03 22:42:00,40.0,23.0,30.21,East,81,9.0,-999.0,51,-99.99,,,-99.99,,2013-04-04 02:42:00,
2013-04-03 22:53:00,40.0,23.0,30.21,East,81,9.0,-999.0,51,-99.99,,,-99.99,,2013-04-04 02:53:00,
2013-04-03 23:02:00,40.0,23.0,30.22,ENE,74,9.0,-999.0,50,-99.99,,,-99.99,,2013-04-04 03:02:00,
2013-04-03 23:12:00,40.0,23.0,30.22,ENE,74,9.0,-999.0,50,-99.99,,,-99.99,,2013-04-04 03:12:00,
2013-04-03 23:22:00,39.0,22.0,30.21,ESE,109,8.0,-999.0,51,-99.99,,,-99.99,,2013-04-04 03:22:00,
2013-04-03 23:33:00,39.0,22.0,30.20,East,95,9.0,-999.0,51,-99.99,,,-99.99,,2013-04-04 03:33:00,
2013-04-03 23:45:00,39.0,22.0,30.20,East,95,9.0,-999.0,51,-99.99,,,-99.99,,2013-04-04 03:45:00,
2013-04-03 23:53:00,39.0,23.0,30.20,East,101,9.0,-999.0,52,-99.99,,,-99.99,,2013-04-04 03:53:00,